GRZ538 Details

Departure: Deadhorse Airport (PASC)
Arrival: Wiley Post-Will Rogers Memorial Airport (PABR) at N/A
Route: SCC OKIKE SEJYY BRW
Notes:


Current Weather Information
PASC 190620Z 09025G34KT 10SM OVC014 M02/M04 A2967 RMK AO2 PK WND 08037/0602 T10221039 $
PABR 190553Z 10016KT 6SM BLSN BR OVC024 01/M03 A2969 RMK AO2 SLP053 60000 T00061028 10006 20000 53005